createdAt,value
2022-08-26T00:01:52.211Z,99334.97
2022-08-26T00:04:18.966Z,99335.97
2022-08-26T00:06:46.062Z,99341.16
2022-08-26T00:09:16.238Z,99341.53
2022-08-26T00:11:44.433Z,99336.50
2022-08-26T00:14:11.749Z,99345.81
2022-08-26T00:16:40.887Z,99341.41
2022-08-26T00:19:08.274Z,99329.59
2022-08-26T00:21:35.543Z,99328.97
2022-08-26T00:24:04.457Z,99338.25
2022-08-26T00:26:30.949Z,99335.72
2022-08-26T00:28:57.346Z,99336.97
2022-08-26T00:31:23.785Z,99336.59
2022-08-26T00:33:50.292Z,99336.34
2022-08-26T00:36:20.224Z,99337.38
2022-08-26T00:38:47.488Z,99338.41
2022-08-26T00:41:13.986Z,99334.56
2022-08-26T00:43:47.511Z,99340.41
2022-08-26T00:46:19.574Z,99328.19
2022-08-26T00:48:49.982Z,99335.56
2022-08-26T00:51:20.505Z,99334.94
2022-08-26T00:53:57.630Z,99343.44
2022-08-26T00:56:56.514Z,99338.94
2022-08-26T00:59:24.246Z,99341.00
2022-08-26T01:01:51.604Z,99335.13
2022-08-26T01:04:22.457Z,99330.59
2022-08-26T01:06:52.794Z,99335.53
2022-08-26T01:09:21.157Z,99336.22
2022-08-26T01:11:50.934Z,99336.53
2022-08-26T01:14:19.268Z,99335.91
2022-08-26T01:16:47.752Z,99334.50
2022-08-26T01:19:26.785Z,99330.81
2022-08-26T01:22:01.600Z,99336.59
2022-08-26T01:24:30.118Z,99337.38
2022-08-26T01:27:01.510Z,99328.75
2022-08-26T01:29:29.206Z,99329.19
2022-08-26T01:31:57.564Z,99328.97
2022-08-26T01:34:27.594Z,99331.50
2022-08-26T01:37:02.780Z,99330.19
2022-08-26T01:39:31.921Z,99322.72
2022-08-26T01:42:03.123Z,99334.34
2022-08-26T01:44:36.262Z,99337.41
2022-08-26T01:47:06.410Z,99335.22
2022-08-26T01:49:35.340Z,99330.06
2022-08-26T01:52:03.415Z,99341.53
2022-08-26T01:54:31.528Z,99332.84
2022-08-26T01:57:00.244Z,99344.06
2022-08-26T01:59:27.039Z,99340.72
2022-08-26T02:01:53.730Z,99345.44
2022-08-26T02:04:48.686Z,99349.06
2022-08-26T02:07:20.486Z,99342.25
2022-08-26T02:09:48.422Z,99345.19
2022-08-26T02:12:18.115Z,99348.81
2022-08-26T02:14:50.200Z,99346.03
2022-08-26T02:17:21.652Z,99356.03
2022-08-26T02:19:50.420Z,99352.91
2022-08-26T02:22:20.799Z,99358.34
2022-08-26T02:24:54.945Z,99355.38
2022-08-26T02:27:32.300Z,99354.16
2022-08-26T02:30:26.311Z,99353.00
2022-08-26T02:32:55.271Z,99345.88
2022-08-26T02:35:23.876Z,99348.97
2022-08-26T02:37:52.430Z,99348.56
2022-08-26T02:40:23.507Z,99358.28
2022-08-26T02:42:50.175Z,99355.72
2022-08-26T02:45:23.101Z,99353.69
2022-08-26T02:47:51.024Z,99357.47
2022-08-26T02:50:17.578Z,99361.06
2022-08-26T02:52:44.108Z,99361.34
2022-08-26T02:55:10.648Z,99365.59
2022-08-26T02:57:37.382Z,99358.13
2022-08-26T03:00:08.470Z,99364.22
2022-08-26T03:02:34.901Z,99357.47
2022-08-26T03:05:02.229Z,99364.34
2022-08-26T03:07:30.131Z,99360.91
2022-08-26T03:09:57.212Z,99362.06
2022-08-26T03:12:23.921Z,99355.03
2022-08-26T03:14:52.118Z,99362.53
2022-08-26T03:17:18.685Z,99358.75
2022-08-26T03:19:45.108Z,99362.19
2022-08-26T03:22:11.952Z,99365.59
2022-08-26T03:24:41.046Z,99369.22
2022-08-26T03:27:10.860Z,99366.69
2022-08-26T03:29:56.820Z,99376.22
2022-08-26T03:32:23.740Z,99373.63
2022-08-26T03:34:53.492Z,99367.16
2022-08-26T03:37:20.793Z,99370.09
2022-08-26T03:39:47.866Z,99361.59
2022-08-26T03:42:15.009Z,99359.94
2022-08-26T03:44:42.103Z,99355.13
2022-08-26T03:47:09.390Z,99362.81
2022-08-26T03:49:36.092Z,99350.78
2022-08-26T03:52:03.984Z,99353.47
2022-08-26T03:54:30.454Z,99359.84
2022-08-26T03:56:56.821Z,99358.72
2022-08-26T03:59:23.404Z,99359.19
2022-08-26T04:01:51.246Z,99360.09
2022-08-26T04:04:18.125Z,99356.88
2022-08-26T04:06:50.071Z,99359.97
2022-08-26T04:09:20.907Z,99361.75
2022-08-26T04:11:50.653Z,99360.00
2022-08-26T04:14:20.671Z,99363.81
2022-08-26T04:16:47.756Z,99367.13
2022-08-26T04:19:15.568Z,99366.78
2022-08-26T04:21:42.321Z,99372.31
2022-08-26T04:24:11.883Z,99361.50
2022-08-26T04:26:42.878Z,99364.19
2022-08-26T04:29:14.489Z,99358.47
2022-08-26T04:31:41.215Z,99347.25
2022-08-26T04:34:08.056Z,99361.06
2022-08-26T04:36:37.663Z,99349.50
2022-08-26T04:39:05.142Z,99348.84
2022-08-26T04:41:31.876Z,99349.28
2022-08-26T04:43:58.556Z,99352.81
2022-08-26T04:46:25.667Z,99357.88
2022-08-26T04:48:53.593Z,99371.22
2022-08-26T04:51:23.632Z,99366.25
2022-08-26T04:53:50.020Z,99370.31
2022-08-26T04:56:16.647Z,99368.03
2022-08-26T04:58:43.304Z,99376.06
2022-08-26T05:01:09.672Z,99382.25
2022-08-26T05:03:36.931Z,99382.66
2022-08-26T05:06:05.172Z,99376.00
2022-08-26T05:08:31.628Z,99387.63
2022-08-26T05:10:58.178Z,99391.22
2022-08-26T05:13:27.247Z,99394.31
2022-08-26T05:15:54.616Z,99392.44
2022-08-26T05:18:29.904Z,99388.84
2022-08-26T05:20:57.352Z,99387.84
2022-08-26T05:23:24.593Z,99385.88
2022-08-26T05:25:58.399Z,99388.09
2022-08-26T05:28:26.927Z,99388.28
2022-08-26T05:30:54.822Z,99388.84
2022-08-26T05:33:21.918Z,99386.88
2022-08-26T05:35:48.478Z,99393.75
2022-08-26T05:38:17.341Z,99397.25
2022-08-26T05:40:48.981Z,99390.66
2022-08-26T05:43:20.030Z,99392.63
2022-08-26T05:45:49.720Z,99390.97
2022-08-26T05:48:18.720Z,99390.78
2022-08-26T05:50:52.321Z,99395.53
2022-08-26T05:53:20.864Z,99402.66
2022-08-26T05:55:52.343Z,99400.38
2022-08-26T05:58:21.412Z,99401.63
2022-08-26T06:00:59.850Z,99399.88
2022-08-26T06:03:26.522Z,99400.03
2022-08-26T06:05:53.391Z,99410.00
2022-08-26T06:08:21.127Z,99399.78
2022-08-26T06:10:51.330Z,99406.47
2022-08-26T06:13:23.915Z,99406.44
2022-08-26T06:15:51.522Z,99408.28
2022-08-26T06:18:21.862Z,99413.19
2022-08-26T06:20:57.174Z,99405.78
2022-08-26T06:23:44.176Z,99407.16
2022-08-26T06:26:11.839Z,99408.03
2022-08-26T06:28:38.365Z,99412.53
2022-08-26T06:31:06.030Z,99417.06
2022-08-26T06:33:33.144Z,99413.25
2022-08-26T06:36:00.997Z,99421.19
2022-08-26T06:38:27.576Z,99409.28
2022-08-26T06:40:59.708Z,99417.72
2022-08-26T06:43:28.029Z,99425.88
2022-08-26T06:46:07.586Z,99415.63
2022-08-26T06:48:36.260Z,99420.84
2022-08-26T06:51:05.983Z,99432.94
2022-08-26T06:53:32.608Z,99433.63
2022-08-26T06:55:58.989Z,99419.41
2022-08-26T06:58:25.512Z,99421.06
2022-08-26T07:00:52.179Z,99428.59
2022-08-26T07:03:18.918Z,99423.66
2022-08-26T07:05:45.379Z,99416.00
2022-08-26T07:08:11.851Z,99424.53
2022-08-26T07:10:38.836Z,99424.97
2022-08-26T07:13:05.993Z,99424.38
2022-08-26T07:15:36.090Z,99426.25
2022-08-26T07:18:02.943Z,99429.97
2022-08-26T07:20:29.435Z,99415.28
2022-08-26T07:22:55.992Z,99432.31
2022-08-26T07:25:22.428Z,99433.38
2022-08-26T07:27:54.514Z,99429.06
2022-08-26T07:30:21.087Z,99414.97
2022-08-26T07:32:48.173Z,99420.78
2022-08-26T07:35:14.739Z,99424.72
2022-08-26T07:37:42.153Z,99425.38
2022-08-26T07:40:09.441Z,99432.44
2022-08-26T07:42:35.882Z,99433.50
2022-08-26T07:45:02.317Z,99436.19
2022-08-26T07:47:28.964Z,99437.00
2022-08-26T07:49:57.248Z,99428.75
2022-08-26T07:52:29.177Z,99430.84
2022-08-26T07:54:58.020Z,99430.00
2022-08-26T07:57:26.146Z,99435.63
2022-08-26T07:59:55.132Z,99415.50
2022-08-26T08:02:22.983Z,99420.50
2022-08-26T08:04:49.593Z,99416.38
2022-08-26T08:07:16.496Z,99416.56
2022-08-26T08:09:42.968Z,99431.34
2022-08-26T08:12:09.443Z,99424.50
2022-08-26T08:14:40.733Z,99420.56
2022-08-26T08:17:08.225Z,99420.53
2022-08-26T08:19:36.762Z,99422.41
2022-08-26T08:22:17.500Z,99408.28
2022-08-26T08:24:44.731Z,99420.91
2022-08-26T08:27:11.166Z,99411.13
2022-08-26T08:29:38.569Z,99415.47
2022-08-26T08:32:05.553Z,99421.28
2022-08-26T08:34:37.906Z,99420.44
2022-08-26T08:37:08.591Z,99409.84
2022-08-26T08:39:36.990Z,99410.44
2022-08-26T08:42:41.904Z,99417.47
2022-08-26T08:45:11.898Z,99410.38
2022-08-26T08:47:51.674Z,99407.22
2022-08-26T08:50:30.334Z,99408.81
2022-08-26T08:53:31.640Z,99406.69
2022-08-26T08:56:24.335Z,99405.59
2022-08-26T08:59:17.785Z,99406.97
2022-08-26T09:02:03.340Z,99407.31
2022-08-26T09:04:46.796Z,99403.31
2022-08-26T09:07:18.539Z,99399.53
2022-08-26T09:09:50.571Z,99397.13
2022-08-26T09:12:28.334Z,99396.84
2022-08-26T09:15:20.320Z,99404.06
2022-08-26T09:18:00.104Z,99401.91
2022-08-26T09:20:41.735Z,99408.66
2022-08-26T09:23:12.420Z,99401.91
2022-08-26T09:25:51.584Z,99390.56
2022-08-26T09:28:22.217Z,99396.50
2022-08-26T09:31:01.716Z,99399.25
2022-08-26T09:33:32.707Z,99388.66
2022-08-26T09:36:18.702Z,99397.84
2022-08-26T09:38:45.952Z,99395.91
2022-08-26T09:41:31.803Z,99401.00
2022-08-26T09:44:04.086Z,99394.56
2022-08-26T09:46:32.018Z,99397.91
2022-08-26T09:49:32.692Z,99393.16
2022-08-26T09:52:20.463Z,99386.56
2022-08-26T09:55:06.925Z,99389.09
2022-08-26T09:57:46.510Z,99380.66
2022-08-26T10:00:33.404Z,99383.41
2022-08-26T10:03:02.774Z,99376.38
2022-08-26T10:05:31.668Z,99374.75
2022-08-26T10:07:59.571Z,99372.16
2022-08-26T10:10:35.010Z,99367.88
2022-08-26T10:13:29.585Z,99354.56
2022-08-26T10:16:10.840Z,99358.47
2022-08-26T10:18:43.458Z,99352.69
2022-08-26T10:21:18.026Z,99347.25
2022-08-26T10:23:51.435Z,99343.72
2022-08-26T10:26:32.711Z,99334.75
2022-08-26T10:29:08.774Z,99339.81
2022-08-26T10:31:43.971Z,99336.47
2022-08-26T10:34:12.518Z,99330.06
2022-08-26T10:37:15.453Z,99331.69
2022-08-26T10:40:02.548Z,99330.63
2022-08-26T10:42:43.014Z,99336.25
2022-08-26T10:45:14.985Z,99327.63
2022-08-26T10:47:51.815Z,99326.19
2022-08-26T10:50:19.739Z,99317.69
2022-08-26T10:52:50.060Z,99320.78
2022-08-26T10:55:24.244Z,99315.28
2022-08-26T10:58:26.405Z,99320.25
2022-08-26T11:01:23.064Z,99310.13
2022-08-26T11:04:12.048Z,99310.88
2022-08-26T11:06:39.158Z,99306.69
2022-08-26T11:09:08.884Z,99308.31
2022-08-26T11:11:41.115Z,99305.66
2022-08-26T11:14:10.111Z,99301.25
2022-08-26T11:16:52.531Z,99312.06
2022-08-26T11:19:59.703Z,99308.50
2022-08-26T11:22:38.036Z,99303.72
2022-08-26T11:25:19.992Z,99297.78
2022-08-26T11:27:50.626Z,99301.94
2022-08-26T11:30:19.497Z,99306.97
2022-08-26T11:32:52.262Z,99303.00
2022-08-26T11:35:19.230Z,99301.03
2022-08-26T11:37:48.279Z,99299.94
2022-08-26T11:40:20.557Z,99294.41
2022-08-26T11:42:55.477Z,99289.41
2022-08-26T11:45:32.549Z,99288.69
2022-08-26T11:47:58.944Z,99290.84
2022-08-26T11:50:28.216Z,99277.41
2022-08-26T11:53:04.134Z,99272.88
2022-08-26T11:55:36.430Z,99281.25
2022-08-26T11:58:05.729Z,99270.81
2022-08-26T12:00:48.590Z,99272.59
2022-08-26T12:03:19.244Z,99280.06
2022-08-26T12:05:49.075Z,99273.63
2022-08-26T12:08:21.524Z,99269.09
2022-08-26T12:10:48.991Z,99268.88
2022-08-26T12:13:23.821Z,99263.75
2022-08-26T12:15:55.820Z,99260.00
2022-08-26T12:18:29.150Z,99263.81
2022-08-26T12:20:59.167Z,99263.63
2022-08-26T12:23:41.314Z,99257.72
2022-08-26T12:26:28.648Z,99253.88
2022-08-26T12:29:02.231Z,99256.63
2022-08-26T12:31:42.476Z,99254.66
2022-08-26T12:34:18.045Z,99252.84
2022-08-26T12:36:55.379Z,99254.81
2022-08-26T12:39:30.218Z,99262.56
2022-08-26T12:42:01.604Z,99278.31
2022-08-26T12:44:53.774Z,99273.94
2022-08-26T12:47:42.599Z,99277.28
2022-08-26T12:50:20.591Z,99274.63
2022-08-26T12:53:11.291Z,99276.38
2022-08-26T12:55:43.795Z,99281.41
2022-08-26T12:58:16.358Z,99281.34
2022-08-26T13:00:51.449Z,99276.03
2022-08-26T13:03:45.260Z,99275.53
2022-08-26T13:06:16.119Z,99267.47
2022-08-26T13:08:48.385Z,99263.34
2022-08-26T13:11:20.302Z,99260.56
2022-08-26T13:13:53.528Z,99261.28
2022-08-26T13:16:21.609Z,99265.41
2022-08-26T13:18:51.387Z,99266.47
2022-08-26T13:21:21.205Z,99269.75
2022-08-26T13:23:49.901Z,99263.53
2022-08-26T13:26:16.658Z,99258.16
2022-08-26T13:28:43.232Z,99257.53
2022-08-26T13:31:14.544Z,99256.13
2022-08-26T13:33:43.871Z,99267.72
2022-08-26T13:36:12.060Z,99260.66
2022-08-26T13:38:38.749Z,99263.75
2022-08-26T13:41:05.828Z,99260.00
2022-08-26T13:43:32.913Z,99266.81
2022-08-26T13:46:01.713Z,99268.06
2022-08-26T13:48:28.334Z,99259.09
2022-08-26T13:50:54.722Z,99240.50
2022-08-26T13:53:21.348Z,99252.50
2022-08-26T13:55:47.903Z,99260.81
2022-08-26T13:58:14.883Z,99264.47
2022-08-26T14:00:41.742Z,99255.00
2022-08-26T14:03:13.248Z,99256.66
2022-08-26T14:05:40.698Z,99259.38
2022-08-26T14:08:07.988Z,99266.59
2022-08-26T14:10:35.083Z,99263.34
2022-08-26T14:13:01.692Z,99265.19
2022-08-26T14:15:28.955Z,99262.78
2022-08-26T14:17:55.806Z,99267.88
2022-08-26T14:20:29.004Z,99278.50
2022-08-26T14:23:13.038Z,99280.66
2022-08-26T14:25:42.242Z,99284.09
2022-08-26T14:28:08.721Z,99291.03
2022-08-26T14:30:36.903Z,99299.75
2022-08-26T14:33:03.337Z,99298.91
2022-08-26T14:35:30.571Z,99294.06
2022-08-26T14:37:57.828Z,99299.63
2022-08-26T14:40:29.261Z,99302.56
2022-08-26T14:42:55.890Z,99296.78
2022-08-26T14:45:27.294Z,99289.56
2022-08-26T14:47:56.426Z,99293.69
2022-08-26T14:50:25.812Z,99283.31
2022-08-26T14:53:10.803Z,99276.00
2022-08-26T14:55:40.318Z,99279.78
2022-08-26T14:58:06.780Z,99273.88
2022-08-26T15:00:33.272Z,99282.13
2022-08-26T15:02:59.781Z,99276.47
2022-08-26T15:05:26.342Z,99272.94
2022-08-26T15:07:52.816Z,99268.44
2022-08-26T15:10:19.603Z,99271.25
2022-08-26T15:12:46.469Z,99278.06
2022-08-26T15:15:16.160Z,99279.94
2022-08-26T15:17:43.164Z,99273.69
2022-08-26T15:20:11.768Z,99282.97
2022-08-26T15:22:39.534Z,99285.22
2022-08-26T15:25:06.464Z,99284.75
2022-08-26T15:27:33.118Z,99285.28
2022-08-26T15:30:06.328Z,99287.75
2022-08-26T15:32:32.779Z,99292.34
2022-08-26T15:34:59.221Z,99293.16
2022-08-26T15:37:25.600Z,99300.63
2022-08-26T15:39:52.852Z,99294.81
2022-08-26T15:42:20.807Z,99299.28
2022-08-26T15:44:47.277Z,99294.09
2022-08-26T15:47:13.989Z,99295.81
2022-08-26T15:49:41.019Z,99294.84
2022-08-26T15:52:07.768Z,99298.31
2022-08-26T15:54:35.057Z,99296.06
2022-08-26T15:57:02.543Z,99287.13
2022-08-26T15:59:32.284Z,99286.63
2022-08-26T16:01:59.975Z,99273.69
2022-08-26T16:04:26.690Z,99273.22
2022-08-26T16:06:53.842Z,99273.91
2022-08-26T16:09:26.803Z,99271.59
2022-08-26T16:11:54.971Z,99268.91
2022-08-26T16:14:22.336Z,99276.56
2022-08-26T16:16:49.080Z,99275.34
2022-08-26T16:19:15.718Z,99279.88
2022-08-26T16:21:42.166Z,99286.72
2022-08-26T16:24:08.958Z,99280.94
2022-08-26T16:26:37.930Z,99292.19
2022-08-26T16:29:08.822Z,99289.38
2022-08-26T16:31:35.503Z,99290.06
2022-08-26T16:34:01.967Z,99299.69
2022-08-26T16:36:28.491Z,99306.91
2022-08-26T16:38:56.207Z,99304.06
2022-08-26T16:41:24.494Z,99317.56
2022-08-26T16:43:50.890Z,99321.38
2022-08-26T16:46:18.341Z,99325.34
2022-08-26T16:48:45.432Z,99331.97
2022-08-26T16:51:13.347Z,99337.00
2022-08-26T16:53:39.844Z,99335.78
2022-08-26T16:56:06.600Z,99334.59
2022-08-26T16:58:32.980Z,99334.84
2022-08-26T17:00:59.412Z,99338.34
2022-08-26T17:03:25.856Z,99344.84
2022-08-26T17:05:52.313Z,99348.81
2022-08-26T17:08:24.323Z,99348.50
2022-08-26T17:10:55.387Z,99353.03
2022-08-26T17:13:31.619Z,99351.13
2022-08-26T17:16:04.154Z,99359.91
2022-08-26T17:18:30.899Z,99355.78
2022-08-26T17:21:01.739Z,99353.75
2022-08-26T17:23:28.070Z,99355.44
2022-08-26T17:25:54.512Z,99352.75
2022-08-26T17:28:20.915Z,99342.19
2022-08-26T17:30:47.362Z,99348.81
2022-08-26T17:33:13.806Z,99355.72
2022-08-26T17:35:43.561Z,99351.16
2022-08-26T17:38:10.151Z,99338.88
2022-08-26T17:40:36.824Z,99330.41
2022-08-26T17:43:03.367Z,99343.91
2022-08-26T17:45:29.769Z,99331.25
2022-08-26T17:47:57.049Z,99341.22
2022-08-26T17:50:23.674Z,99340.47
2022-08-26T17:52:50.516Z,99342.50
2022-08-26T17:55:18.006Z,99341.13
2022-08-26T17:57:53.163Z,99338.19
2022-08-26T18:00:23.434Z,99332.66
2022-08-26T18:02:49.836Z,99330.97
2022-08-26T18:05:17.388Z,99337.22
2022-08-26T18:07:44.712Z,99335.16
2022-08-26T18:10:14.559Z,99339.13
2022-08-26T18:12:41.489Z,99338.94
2022-08-26T18:15:10.161Z,99351.41
2022-08-26T18:17:37.624Z,99351.84
2022-08-26T18:20:04.364Z,99355.59
2022-08-26T18:22:30.762Z,99355.59
2022-08-26T18:24:58.748Z,99354.19
2022-08-26T18:27:26.266Z,99352.31
2022-08-26T18:29:52.998Z,99354.19
2022-08-26T18:32:19.354Z,99354.84
2022-08-26T18:34:45.733Z,99359.16
2022-08-26T18:37:14.275Z,99368.38
2022-08-26T18:39:41.553Z,99366.72
2022-08-26T18:42:08.767Z,99363.59
2022-08-26T18:44:35.284Z,99363.38
2022-08-26T18:47:01.704Z,99356.56
2022-08-26T18:49:28.737Z,99361.94
2022-08-26T18:51:55.209Z,99358.63
2022-08-26T18:54:21.936Z,99367.41
2022-08-26T18:56:48.563Z,99364.25
2022-08-26T18:59:14.990Z,99375.28
2022-08-26T19:01:42.474Z,99378.19
2022-08-26T19:04:15.772Z,99372.34
2022-08-26T19:06:43.071Z,99368.84
2022-08-26T19:09:11.759Z,99376.31
2022-08-26T19:11:42.826Z,99371.97
2022-08-26T19:14:13.438Z,99367.84
2022-08-26T19:16:42.301Z,99369.50
2022-08-26T19:19:08.976Z,99368.66
2022-08-26T19:21:37.098Z,99384.41
2022-08-26T19:24:06.893Z,99390.84
2022-08-26T19:26:33.408Z,99395.19
2022-08-26T19:29:00.194Z,99392.09
2022-08-26T19:31:27.507Z,99390.47
2022-08-26T19:33:54.040Z,99392.91
2022-08-26T19:36:23.493Z,99391.09
2022-08-26T19:38:50.194Z,99387.75
2022-08-26T19:41:20.272Z,99383.41
2022-08-26T19:43:47.159Z,99382.38
2022-08-26T19:46:22.973Z,99387.38
2022-08-26T19:48:54.041Z,99395.25
2022-08-26T19:51:28.546Z,99400.84
2022-08-26T19:53:57.553Z,99411.81
2022-08-26T19:56:24.291Z,99413.88
2022-08-26T19:58:51.061Z,99410.59
2022-08-26T20:01:18.375Z,99414.72
2022-08-26T20:03:45.057Z,99405.59
2022-08-26T20:06:13.244Z,99401.03
2022-08-26T20:08:41.250Z,99402.31
2022-08-26T20:11:11.802Z,99386.13
2022-08-26T20:13:39.806Z,99386.94
2022-08-26T20:16:06.472Z,99396.31
2022-08-26T20:18:51.971Z,99392.16
2022-08-26T20:21:27.596Z,99391.53
2022-08-26T20:23:57.893Z,99391.53
2022-08-26T20:26:25.126Z,99381.56
2022-08-26T20:28:51.598Z,99384.69
2022-08-26T20:31:19.031Z,99387.19
2022-08-26T20:33:46.451Z,99385.94
2022-08-26T20:36:14.733Z,99391.94
2022-08-26T20:38:41.263Z,99396.09
2022-08-26T20:41:07.683Z,99384.47
2022-08-26T20:43:34.101Z,99386.94
2022-08-26T20:46:00.839Z,99394.47
2022-08-26T20:48:27.498Z,99399.41
2022-08-26T20:51:01.048Z,99396.13
2022-08-26T20:53:29.361Z,99403.09
2022-08-26T20:56:00.483Z,99404.97
2022-08-26T20:58:26.908Z,99407.72
2022-08-26T21:00:53.518Z,99411.03
2022-08-26T21:03:19.959Z,99413.28
2022-08-26T21:05:47.020Z,99419.25
2022-08-26T21:08:13.384Z,99415.97
2022-08-26T21:10:39.928Z,99424.47
2022-08-26T21:13:07.254Z,99421.38
2022-08-26T21:15:35.074Z,99431.28
2022-08-26T21:18:01.564Z,99438.13
2022-08-26T21:20:27.956Z,99433.34
2022-08-26T21:22:54.366Z,99436.25
2022-08-26T21:25:20.902Z,99431.47
2022-08-26T21:27:47.428Z,99435.84
2022-08-26T21:30:15.443Z,99430.47
2022-08-26T21:32:42.092Z,99434.59
2022-08-26T21:35:09.171Z,99430.44
2022-08-26T21:37:35.602Z,99438.72
2022-08-26T21:40:03.739Z,99442.88
2022-08-26T21:42:33.310Z,99443.66
2022-08-26T21:45:00.399Z,99444.53
2022-08-26T21:47:27.515Z,99445.13
2022-08-26T21:49:54.142Z,99446.38
2022-08-26T21:52:21.332Z,99439.97
2022-08-26T21:54:49.387Z,99439.16
2022-08-26T21:57:16.943Z,99448.03
2022-08-26T21:59:43.307Z,99449.47
2022-08-26T22:02:10.811Z,99444.88
2022-08-26T22:04:37.304Z,99447.56
2022-08-26T22:07:04.194Z,99450.44
2022-08-26T22:09:31.534Z,99467.22
2022-08-26T22:11:58.997Z,99453.13
2022-08-26T22:14:30.377Z,99452.56
2022-08-26T22:16:58.805Z,99450.69
2022-08-26T22:19:26.276Z,99451.91
2022-08-26T22:21:54.467Z,99457.69
2022-08-26T22:24:23.876Z,99459.78
2022-08-26T22:26:51.036Z,99458.16
2022-08-26T22:29:18.691Z,99457.72
2022-08-26T22:31:45.829Z,99460.63
2022-08-26T22:34:19.413Z,99458.34
2022-08-26T22:36:47.995Z,99458.13
2022-08-26T22:39:18.420Z,99459.13
2022-08-26T22:41:48.351Z,99462.69
2022-08-26T22:44:16.227Z,99453.13
2022-08-26T22:46:43.744Z,99449.38
2022-08-26T22:49:15.741Z,99461.00
2022-08-26T22:51:43.889Z,99451.88
2022-08-26T22:54:10.873Z,99446.88
2022-08-26T22:56:40.189Z,99446.50
2022-08-26T22:59:07.923Z,99447.28
2022-08-26T23:01:38.105Z,99446.28
2022-08-26T23:04:06.237Z,99453.56
2022-08-26T23:06:35.591Z,99445.66
2022-08-26T23:09:02.026Z,99454.75
2022-08-26T23:11:28.475Z,99458.31
2022-08-26T23:13:55.122Z,99457.91
2022-08-26T23:16:21.597Z,99452.53
2022-08-26T23:18:48.094Z,99459.09
2022-08-26T23:21:15.117Z,99462.41
2022-08-26T23:23:41.835Z,99460.56
2022-08-26T23:26:08.491Z,99463.25
2022-08-26T23:28:36.077Z,99464.75
2022-08-26T23:31:02.526Z,99464.53
2022-08-26T23:33:48.906Z,99472.19
2022-08-26T23:36:18.058Z,99465.97
2022-08-26T23:38:48.562Z,99463.69
2022-08-26T23:41:19.032Z,99461.16
2022-08-26T23:43:45.469Z,99459.72
2022-08-26T23:46:12.074Z,99465.50
2022-08-26T23:48:38.565Z,99460.97
2022-08-26T23:51:23.671Z,99456.41
2022-08-26T23:53:50.559Z,99458.28
2022-08-26T23:56:17.591Z,99449.81
2022-08-26T23:58:44.481Z,99466.09
